DAL2167 CYVR-KPDX
Flight info
| Callsign | DAL2167 |
|---|---|
| Flight time | 0h 51m |
| Altitude | 29000 |
| Route | GRG8/26L SEA DCT BUWZO KRATR3 |
| Aircraft | A20N/M-SDE2E3FGHIRWXY/LB1 |
Departure
| Time | 2026-05-08 03:11 |
|---|---|
| Airport | Vancouver International Airport (CYVR) |
Arrival
| Time | 2026-05-08 04:02 |
|---|---|
| Airport | Portland International Airport (KPDX) |
| Time | Latitude | Longitude | Altitude | Speed | Heading |
|---|---|---|---|---|---|
| 2026-05-08 02:36 | 49.19189 | -123.18209 | 19 ft | 0 kts | 10° |
| 2026-05-08 02:58 | 49.19183 | -123.18210 | 19 ft | 1 kts | 10° |
| 2026-05-08 02:58 | 49.19175 | -123.18213 | 18 ft | 1 kts | 10° |
| 2026-05-08 02:58 | 49.19168 | -123.18215 | 17 ft | 1 kts | 10° |
| 2026-05-08 02:59 | 49.19160 | -123.18217 | 17 ft | 1 kts | 10° |
| 2026-05-08 02:59 | 49.19153 | -123.18219 | 17 ft | 1 kts | 10° |
| 2026-05-08 02:59 | 49.19145 | -123.18221 | 19 ft | 1 kts | 10° |
| 2026-05-08 02:59 | 49.19137 | -123.18223 | 17 ft | 1 kts | 11° |
| 2026-05-08 03:00 | 49.19130 | -123.18226 | 17 ft | 1 kts | 26° |
| 2026-05-08 03:00 | 49.19123 | -123.18231 | 17 ft | 1 kts | 44° |
| 2026-05-08 03:00 | 49.19118 | -123.18240 | 17 ft | 1 kts | 71° |
| 2026-05-08 03:00 | 49.19117 | -123.18242 | 17 ft | 0 kts | 75° |
| 2026-05-08 03:03 | 49.19118 | -123.18227 | 17 ft | 3 kts | 87° |
| 2026-05-08 03:04 | 49.19114 | -123.18176 | 18 ft | 7 kts | 99° |
| 2026-05-08 03:04 | 49.19102 | -123.18092 | 18 ft | 10 kts | 109° |
| 2026-05-08 03:04 | 49.19054 | -123.18040 | 19 ft | 9 kts | 174° |
| 2026-05-08 03:04 | 49.18987 | -123.18046 | 20 ft | 11 kts | 200° |
| 2026-05-08 03:05 | 49.18924 | -123.18066 | 19 ft | 5 kts | 170° |
| 2026-05-08 03:05 | 49.18893 | -123.18025 | 19 ft | 7 kts | 116° |
| 2026-05-08 03:05 | 49.18889 | -123.17930 | 18 ft | 12 kts | 90° |
| 2026-05-08 03:05 | 49.18881 | -123.17779 | 18 ft | 16 kts | 98° |
| 2026-05-08 03:06 | 49.18867 | -123.17662 | 18 ft | 12 kts | 101° |
| 2026-05-08 03:06 | 49.18850 | -123.17519 | 18 ft | 15 kts | 97° |
| 2026-05-08 03:06 | 49.18831 | -123.17350 | 18 ft | 17 kts | 101° |
| 2026-05-08 03:06 | 49.18810 | -123.17170 | 18 ft | 18 kts | 99° |
| 2026-05-08 03:07 | 49.18788 | -123.16979 | 18 ft | 19 kts | 99° |
| 2026-05-08 03:07 | 49.18766 | -123.16773 | 18 ft | 20 kts | 97° |
| 2026-05-08 03:07 | 49.18742 | -123.16557 | 19 ft | 21 kts | 103° |
| 2026-05-08 03:07 | 49.18719 | -123.16371 | 20 ft | 0 kts | 99° |
| 2026-05-08 03:08 | 49.18703 | -123.16302 | 18 ft | 13 kts | 117° |
| 2026-05-08 03:08 | 49.18642 | -123.16187 | 19 ft | 6 kts | 116° |
| 2026-05-08 03:08 | 49.18624 | -123.16081 | 19 ft | 14 kts | 116° |
| 2026-05-08 03:08 | 49.18600 | -123.16041 | 19 ft | 0 kts | 158° |
| 2026-05-08 03:09 | 49.18598 | -123.16040 | 19 ft | 1 kts | 159° |
| 2026-05-08 03:09 | 49.18579 | -123.16034 | 19 ft | 4 kts | 173° |
| 2026-05-08 03:10 | 49.18529 | -123.16039 | 20 ft | 10 kts | 187° |
| 2026-05-08 03:10 | 49.18477 | -123.16097 | 20 ft | 10 kts | 263° |
| 2026-05-08 03:10 | 49.18490 | -123.16244 | 21 ft | 25 kts | 280° |
| 2026-05-08 03:10 | 49.18564 | -123.16894 | 16 ft | 98 kts | 280° |
| 2026-05-08 03:11 | 49.18717 | -123.18236 | 21 ft | 155 kts | 279° |
| 2026-05-08 03:11 | 49.18926 | -123.19965 | 458 ft | 166 kts | 279° |
| 2026-05-08 03:11 | 49.19100 | -123.21703 | 1204 ft | 163 kts | 273° |
| 2026-05-08 03:11 | 49.19093 | -123.23388 | 2033 ft | 154 kts | 264° |
| 2026-05-08 03:12 | 49.18993 | -123.25061 | 2535 ft | 168 kts | 263° |
| 2026-05-08 03:12 | 49.18859 | -123.26944 | 2948 ft | 188 kts | 263° |
| 2026-05-08 03:12 | 49.18697 | -123.29035 | 3452 ft | 208 kts | 263° |
| 2026-05-08 03:12 | 49.18509 | -123.31365 | 3922 ft | 232 kts | 263° |
| 2026-05-08 03:13 | 49.18293 | -123.33927 | 4510 ft | 254 kts | 263° |
| 2026-05-08 03:13 | 49.18053 | -123.36692 | 5191 ft | 269 kts | 262° |
| 2026-05-08 03:13 | 49.17809 | -123.39550 | 6135 ft | 274 kts | 262° |
| 2026-05-08 03:13 | 49.17584 | -123.42469 | 7036 ft | 278 kts | 262° |
| 2026-05-08 03:14 | 49.17368 | -123.45411 | 8029 ft | 280 kts | 262° |
| 2026-05-08 03:14 | 49.17158 | -123.48393 | 8967 ft | 284 kts | 263° |
| 2026-05-08 03:14 | 49.16951 | -123.51409 | 9916 ft | 287 kts | 262° |
| 2026-05-08 03:14 | 49.16742 | -123.54503 | 10553 ft | 302 kts | 263° |
| 2026-05-08 03:15 | 49.16514 | -123.57810 | 10880 ft | 325 kts | 262° |
| 2026-05-08 03:15 | 49.16267 | -123.61340 | 11351 ft | 340 kts | 263° |
| 2026-05-08 03:15 | 49.16009 | -123.64954 | 12203 ft | 343 kts | 263° |
| 2026-05-08 03:15 | 49.15747 | -123.68588 | 13042 ft | 347 kts | 263° |
| 2026-05-08 03:16 | 49.15412 | -123.72236 | 13845 ft | 350 kts | 254° |
| 2026-05-08 03:16 | 49.14388 | -123.75614 | 14585 ft | 351 kts | 233° |
| 2026-05-08 03:16 | 49.12655 | -123.78228 | 15306 ft | 354 kts | 214° |
| 2026-05-08 03:16 | 49.10419 | -123.79830 | 15790 ft | 358 kts | 196° |
| 2026-05-08 03:17 | 49.07936 | -123.80237 | 15949 ft | 363 kts | 177° |
| 2026-05-08 03:17 | 49.05478 | -123.79365 | 15986 ft | 366 kts | 158° |
| 2026-05-08 03:17 | 49.03330 | -123.77286 | 15990 ft | 370 kts | 139° |
| 2026-05-08 03:17 | 49.01634 | -123.74298 | 16264 ft | 376 kts | 130° |
| 2026-05-08 03:18 | 48.99937 | -123.71273 | 17044 ft | 376 kts | 136° |
| 2026-05-08 03:18 | 48.98009 | -123.68559 | 17746 ft | 378 kts | 143° |
| 2026-05-08 03:18 | 48.95892 | -123.66161 | 18410 ft | 381 kts | 148° |
| 2026-05-08 03:18 | 48.93687 | -123.63978 | 18971 ft | 385 kts | 150° |
| 2026-05-08 03:19 | 48.91385 | -123.61841 | 19544 ft | 389 kts | 151° |
| 2026-05-08 03:19 | 48.89046 | -123.59718 | 20079 ft | 394 kts | 152° |
| 2026-05-08 03:19 | 48.86673 | -123.57571 | 20588 ft | 400 kts | 152° |
| 2026-05-08 03:19 | 48.84274 | -123.55394 | 21157 ft | 404 kts | 152° |
| 2026-05-08 03:20 | 48.81845 | -123.53184 | 21695 ft | 408 kts | 152° |
| 2026-05-08 03:20 | 48.79393 | -123.50952 | 22243 ft | 413 kts | 152° |
| 2026-05-08 03:20 | 48.76919 | -123.48699 | 22772 ft | 417 kts | 152° |
| 2026-05-08 03:20 | 48.74419 | -123.46419 | 23316 ft | 420 kts | 152° |
| 2026-05-08 03:21 | 48.71894 | -123.44128 | 23769 ft | 426 kts | 152° |
| 2026-05-08 03:21 | 48.69347 | -123.41818 | 24233 ft | 429 kts | 152° |
| 2026-05-08 03:21 | 48.66765 | -123.39479 | 24638 ft | 434 kts | 152° |
| 2026-05-08 03:21 | 48.64213 | -123.37169 | 25079 ft | 437 kts | 152° |
| 2026-05-08 03:22 | 48.61553 | -123.34763 | 25519 ft | 440 kts | 152° |
| 2026-05-08 03:22 | 48.58916 | -123.32381 | 25941 ft | 443 kts | 152° |
| 2026-05-08 03:22 | 48.56257 | -123.29982 | 26358 ft | 447 kts | 152° |
| 2026-05-08 03:22 | 48.54484 | -123.28385 | 26630 ft | 449 kts | 152° |
| 2026-05-08 03:23 | 48.51796 | -123.25965 | 27064 ft | 452 kts | 152° |
| 2026-05-08 03:23 | 48.48202 | -123.22732 | 27559 ft | 456 kts | 152° |
| 2026-05-08 03:23 | 48.45462 | -123.20271 | 27938 ft | 460 kts | 152° |
| 2026-05-08 03:23 | 48.42702 | -123.17797 | 28304 ft | 463 kts | 153° |
| 2026-05-08 03:24 | 48.40833 | -123.16125 | 28538 ft | 465 kts | 153° |
| 2026-05-08 03:24 | 48.37138 | -123.12822 | 28979 ft | 469 kts | 153° |
| 2026-05-08 03:24 | 48.35237 | -123.11125 | 29062 ft | 470 kts | 153° |
| 2026-05-08 03:25 | 48.29662 | -123.06155 | 29053 ft | 469 kts | 153° |
| 2026-05-08 03:25 | 48.23076 | -123.00302 | 29065 ft | 470 kts | 153° |
| 2026-05-08 03:26 | 48.18397 | -122.96155 | 29033 ft | 469 kts | 153° |
| 2026-05-08 03:26 | 48.12808 | -122.91212 | 29015 ft | 466 kts | 153° |
| 2026-05-08 03:27 | 48.07210 | -122.86272 | 29006 ft | 468 kts | 153° |
| 2026-05-08 03:27 | 48.01600 | -122.81335 | 28997 ft | 467 kts | 153° |
| 2026-05-08 03:28 | 47.95994 | -122.76414 | 29056 ft | 467 kts | 153° |
| 2026-05-08 03:28 | 47.90387 | -122.71507 | 29054 ft | 467 kts | 153° |
| 2026-05-08 03:29 | 47.84764 | -122.66598 | 29068 ft | 468 kts | 153° |
| 2026-05-08 03:29 | 47.79178 | -122.61730 | 29072 ft | 468 kts | 153° |
| 2026-05-08 03:30 | 47.70730 | -122.54392 | 29089 ft | 469 kts | 153° |
| 2026-05-08 03:31 | 47.59458 | -122.44648 | 29093 ft | 469 kts | 153° |
| 2026-05-08 03:32 | 47.50995 | -122.37363 | 29085 ft | 469 kts | 153° |
| 2026-05-08 03:32 | 47.45265 | -122.32797 | 29101 ft | 465 kts | 162° |
| 2026-05-08 03:32 | 47.42179 | -122.31445 | 29101 ft | 460 kts | 173° |
| 2026-05-08 03:33 | 47.39023 | -122.30930 | 29101 ft | 454 kts | 183° |
| 2026-05-08 03:33 | 47.32703 | -122.30958 | 29101 ft | 453 kts | 184° |
| 2026-05-08 03:34 | 47.26393 | -122.30966 | 29086 ft | 453 kts | 184° |
| 2026-05-08 03:34 | 47.20099 | -122.30965 | 29085 ft | 452 kts | 184° |
| 2026-05-08 03:35 | 47.13826 | -122.30963 | 28703 ft | 448 kts | 184° |
| 2026-05-08 03:35 | 47.10718 | -122.30962 | 28186 ft | 445 kts | 184° |
| 2026-05-08 03:35 | 47.07632 | -122.30961 | 27607 ft | 441 kts | 184° |
| 2026-05-08 03:35 | 47.04574 | -122.30960 | 27010 ft | 437 kts | 184° |
| 2026-05-08 03:36 | 47.01546 | -122.30960 | 26431 ft | 434 kts | 184° |
| 2026-05-08 03:36 | 46.98580 | -122.30960 | 25882 ft | 430 kts | 184° |
| 2026-05-08 03:36 | 46.95568 | -122.30960 | 25320 ft | 426 kts | 184° |
| 2026-05-08 03:36 | 46.92694 | -122.30960 | 24802 ft | 422 kts | 185° |
| 2026-05-08 03:37 | 46.89766 | -122.30960 | 24249 ft | 418 kts | 185° |
| 2026-05-08 03:37 | 46.86877 | -122.30959 | 23774 ft | 413 kts | 185° |
| 2026-05-08 03:37 | 46.81103 | -122.30961 | 22506 ft | 406 kts | 184° |
| 2026-05-08 03:38 | 46.78282 | -122.30961 | 21885 ft | 403 kts | 184° |
| 2026-05-08 03:38 | 46.75487 | -122.30962 | 21304 ft | 400 kts | 184° |
| 2026-05-08 03:38 | 46.72718 | -122.30967 | 20762 ft | 396 kts | 184° |
| 2026-05-08 03:38 | 46.69973 | -122.30970 | 20181 ft | 394 kts | 184° |
| 2026-05-08 03:39 | 46.67243 | -122.30970 | 19628 ft | 391 kts | 183° |
| 2026-05-08 03:39 | 46.64529 | -122.30969 | 19071 ft | 388 kts | 183° |
| 2026-05-08 03:39 | 46.61838 | -122.30969 | 18538 ft | 386 kts | 183° |
| 2026-05-08 03:39 | 46.59163 | -122.30970 | 17945 ft | 383 kts | 183° |
| 2026-05-08 03:40 | 46.56509 | -122.30971 | 17466 ft | 378 kts | 183° |
| 2026-05-08 03:40 | 46.53890 | -122.30971 | 17201 ft | 378 kts | 183° |
| 2026-05-08 03:40 | 46.51253 | -122.30974 | 16946 ft | 379 kts | 183° |
| 2026-05-08 03:40 | 46.48626 | -122.30975 | 16697 ft | 376 kts | 183° |
| 2026-05-08 03:41 | 46.46015 | -122.30974 | 16444 ft | 374 kts | 183° |
| 2026-05-08 03:41 | 46.43409 | -122.30973 | 16198 ft | 373 kts | 183° |
| 2026-05-08 03:41 | 46.40817 | -122.30973 | 15771 ft | 374 kts | 183° |
| 2026-05-08 03:41 | 46.38219 | -122.30974 | 15264 ft | 372 kts | 183° |
| 2026-05-08 03:42 | 46.35643 | -122.30972 | 14766 ft | 369 kts | 183° |
| 2026-05-08 03:42 | 46.33084 | -122.30971 | 14272 ft | 365 kts | 183° |
| 2026-05-08 03:42 | 46.30549 | -122.30971 | 13751 ft | 363 kts | 183° |
| 2026-05-08 03:42 | 46.28073 | -122.30987 | 13262 ft | 358 kts | 185° |
| 2026-05-08 03:43 | 46.25621 | -122.31381 | 12786 ft | 351 kts | 194° |
| 2026-05-08 03:43 | 46.23295 | -122.32293 | 12319 ft | 343 kts | 202° |
| 2026-05-08 03:43 | 46.21087 | -122.33542 | 11867 ft | 339 kts | 204° |
| 2026-05-08 03:43 | 46.18901 | -122.34773 | 11409 ft | 334 kts | 204° |
| 2026-05-08 03:44 | 46.16744 | -122.35976 | 11122 ft | 334 kts | 203° |
| 2026-05-08 03:44 | 46.14539 | -122.37199 | 11023 ft | 341 kts | 203° |
| 2026-05-08 03:44 | 46.12334 | -122.38421 | 11012 ft | 339 kts | 203° |
| 2026-05-08 03:44 | 46.10132 | -122.39645 | 11009 ft | 339 kts | 203° |
| 2026-05-08 03:45 | 46.07928 | -122.40866 | 11009 ft | 340 kts | 203° |
| 2026-05-08 03:45 | 46.05726 | -122.42058 | 10957 ft | 336 kts | 203° |
| 2026-05-08 03:45 | 46.03575 | -122.43209 | 10847 ft | 322 kts | 203° |
| 2026-05-08 03:45 | 46.01522 | -122.44305 | 10624 ft | 309 kts | 203° |
| 2026-05-08 03:46 | 45.99524 | -122.45378 | 10120 ft | 305 kts | 203° |
| 2026-05-08 03:46 | 45.97557 | -122.46437 | 9640 ft | 296 kts | 203° |
| 2026-05-08 03:46 | 45.95656 | -122.47458 | 9211 ft | 287 kts | 203° |
| 2026-05-08 03:46 | 45.93792 | -122.48323 | 8988 ft | 282 kts | 194° |
| 2026-05-08 03:47 | 45.91827 | -122.48525 | 8561 ft | 287 kts | 178° |
| 2026-05-08 03:47 | 45.89849 | -122.48078 | 7993 ft | 289 kts | 172° |
| 2026-05-08 03:47 | 45.87876 | -122.47562 | 7460 ft | 287 kts | 172° |
| 2026-05-08 03:47 | 45.85925 | -122.47060 | 6925 ft | 284 kts | 172° |
| 2026-05-08 03:48 | 45.83988 | -122.46569 | 6428 ft | 279 kts | 172° |
| 2026-05-08 03:48 | 45.82136 | -122.46100 | 6256 ft | 262 kts | 172° |
| 2026-05-08 03:48 | 45.80399 | -122.45661 | 6099 ft | 245 kts | 173° |
| 2026-05-08 03:48 | 45.78786 | -122.45258 | 5994 ft | 224 kts | 173° |
| 2026-05-08 03:49 | 45.77324 | -122.44893 | 6000 ft | 207 kts | 174° |
| 2026-05-08 03:49 | 45.75878 | -122.44541 | 5993 ft | 212 kts | 174° |
| 2026-05-08 03:49 | 45.74437 | -122.44189 | 6004 ft | 210 kts | 174° |
| 2026-05-08 03:49 | 45.72993 | -122.43835 | 6009 ft | 210 kts | 174° |
| 2026-05-08 03:50 | 45.71551 | -122.43479 | 6000 ft | 210 kts | 174° |
| 2026-05-08 03:50 | 45.70106 | -122.43122 | 5990 ft | 211 kts | 173° |
| 2026-05-08 03:50 | 45.68656 | -122.42763 | 5982 ft | 211 kts | 173° |
| 2026-05-08 03:50 | 45.67215 | -122.42405 | 5997 ft | 210 kts | 173° |
| 2026-05-08 03:51 | 45.65771 | -122.42048 | 5991 ft | 210 kts | 174° |
| 2026-05-08 03:51 | 45.64330 | -122.41691 | 5991 ft | 210 kts | 174° |
| 2026-05-08 03:51 | 45.62886 | -122.41334 | 5992 ft | 210 kts | 174° |
| 2026-05-08 03:51 | 45.61463 | -122.40953 | 5980 ft | 211 kts | 165° |
| 2026-05-08 03:52 | 45.60229 | -122.39799 | 5993 ft | 220 kts | 131° |
| 2026-05-08 03:52 | 45.59451 | -122.37904 | 5989 ft | 223 kts | 115° |
| 2026-05-08 03:52 | 45.58942 | -122.36047 | 5995 ft | 223 kts | 112° |
| 2026-05-08 03:52 | 45.58404 | -122.33971 | 5993 ft | 223 kts | 113° |
| 2026-05-08 03:53 | 45.57833 | -122.31920 | 5989 ft | 223 kts | 114° |
| 2026-05-08 03:53 | 45.57225 | -122.29890 | 5971 ft | 221 kts | 116° |
| 2026-05-08 03:53 | 45.56600 | -122.27902 | 5805 ft | 219 kts | 116° |
| 2026-05-08 03:53 | 45.55965 | -122.25928 | 5540 ft | 218 kts | 117° |
| 2026-05-08 03:54 | 45.55329 | -122.23971 | 5280 ft | 216 kts | 116° |
| 2026-05-08 03:54 | 45.54699 | -122.22034 | 5027 ft | 214 kts | 116° |
| 2026-05-08 03:54 | 45.53914 | -122.20275 | 4740 ft | 209 kts | 142° |
| 2026-05-08 03:54 | 45.52637 | -122.19438 | 4429 ft | 202 kts | 178° |
| 2026-05-08 03:55 | 45.51254 | -122.19654 | 4117 ft | 200 kts | 194° |
| 2026-05-08 03:55 | 45.49897 | -122.20080 | 3837 ft | 199 kts | 194° |
| 2026-05-08 03:55 | 45.48572 | -122.20514 | 3567 ft | 199 kts | 194° |
| 2026-05-08 03:55 | 45.47221 | -122.20967 | 3300 ft | 199 kts | 195° |
| 2026-05-08 03:56 | 45.45927 | -122.21606 | 3032 ft | 195 kts | 218° |
| 2026-05-08 03:56 | 45.45256 | -122.23182 | 3018 ft | 198 kts | 265° |
| 2026-05-08 03:56 | 45.45608 | -122.25018 | 3003 ft | 195 kts | 306° |
| 2026-05-08 03:56 | 45.46444 | -122.26555 | 2989 ft | 196 kts | 307° |
| 2026-05-08 03:57 | 45.47209 | -122.28158 | 2990 ft | 196 kts | 301° |
| 2026-05-08 03:57 | 45.47888 | -122.29843 | 2988 ft | 195 kts | 298° |
| 2026-05-08 03:57 | 45.48547 | -122.31543 | 2990 ft | 197 kts | 299° |
| 2026-05-08 03:57 | 45.49210 | -122.33239 | 2987 ft | 195 kts | 299° |
| 2026-05-08 03:58 | 45.49871 | -122.34933 | 2990 ft | 196 kts | 299° |
| 2026-05-08 03:58 | 45.50533 | -122.36627 | 2988 ft | 196 kts | 298° |
| 2026-05-08 03:58 | 45.51196 | -122.38324 | 2929 ft | 197 kts | 298° |
| 2026-05-08 03:58 | 45.51862 | -122.40031 | 2676 ft | 197 kts | 298° |
| 2026-05-08 03:59 | 45.52527 | -122.41735 | 2400 ft | 197 kts | 298° |
| 2026-05-08 03:59 | 45.53181 | -122.43412 | 2171 ft | 188 kts | 298° |
| 2026-05-08 03:59 | 45.53786 | -122.44960 | 1879 ft | 174 kts | 298° |
| 2026-05-08 03:59 | 45.54349 | -122.46405 | 1671 ft | 160 kts | 298° |
| 2026-05-08 04:00 | 45.54865 | -122.47728 | 1449 ft | 145 kts | 298° |
| 2026-05-08 04:00 | 45.55334 | -122.48931 | 1267 ft | 133 kts | 298° |
| 2026-05-08 04:00 | 45.55794 | -122.50111 | 1090 ft | 137 kts | 298° |
| 2026-05-08 04:00 | 45.56254 | -122.51292 | 937 ft | 135 kts | 299° |
| 2026-05-08 04:01 | 45.56709 | -122.52458 | 750 ft | 134 kts | 300° |
| 2026-05-08 04:01 | 45.57151 | -122.53594 | 582 ft | 130 kts | 300° |
| 2026-05-08 04:01 | 45.57597 | -122.54730 | 406 ft | 132 kts | 301° |
| 2026-05-08 04:01 | 45.58042 | -122.55871 | 231 ft | 130 kts | 300° |
| 2026-05-08 04:02 | 45.58470 | -122.56979 | 68 ft | 122 kts | 300° |
| 2026-05-08 04:02 | 45.58852 | -122.57947 | 33 ft | 86 kts | 299° |
| 2026-05-08 04:02 | 45.58994 | -122.58331 | 33 ft | 14 kts | 289° |
| 2026-05-08 04:02 | 45.59032 | -122.58571 | 32 ft | 23 kts | 275° |
| 2026-05-08 04:03 | 45.59031 | -122.58709 | 33 ft | 0 kts | 270° |
| 2026-05-08 04:04 | 45.59031 | -122.58721 | 33 ft | 6 kts | 270° |
| 2026-05-08 04:04 | 45.59031 | -122.58739 | 33 ft | 7 kts | 269° |